Trine Charlotte — LMRY — position and weather

sailwx.info

Track history (hours):
 
Tides and Currents Weather Stations Pressure Air Temp Water Temp Dewpoint Dewpoint Depression Visibility Wind Speed Wind Dir Waves Ship Positions

Trine Charlotte

Last reported at 2017-Jun-24 10:00 UTC. Time now 2017-Jun-24 10:11 UTC.
Position N 68°48' E 015°26'.

Length 66 m; draft 4.4 m.

Type: Cargo ship. MMSI: 257233000.

Date/timePositionNaut miles runAvg speedWind from/ knotsBaromVisibWave heightAir tempDewpointWater temp
2017-Jun-24 10:00N 68°48' E 015°26'5 9.3
2017-Jun-24 09:30N 68°52' E 015°31'5 9.3
2017-Jun-24 09:00N 68°56' E 015°36'4 7.9
2017-Jun-24 08:30N 68°59' E 015°45'5 9.4
2017-Jun-24 08:00N 68°59' E 015°58'5 9.4
2017-Jun-24 07:30N 68°60' E 016°11'4 8.8
2017-Jun-24 07:00N 68°59' E 016°23'4 8.8
2017-Jun-24 06:30N 68°59' E 016°35'5 9.6
2017-Jun-24 06:00N 68°59' E 016°49'510.3
2017-Jun-24 05:30N 68°60' E 017°03'5 9.7
2017-Jun-24 05:00N 69°01' E 017°16'5 9.9
2017-Jun-24 04:30N 69°05' E 017°24'510.2
2017-Jun-24 04:00N 69°07' E 017°37'510.1
2017-Jun-24 03:30N 69°09' E 017°50'5 9.6
2017-Jun-24 03:00N 69°12' E 018°01'4 8.7
2017-Jun-24 02:30N 69°16' E 017°58'4 8.6
2017-Jun-24 02:00N 69°20' E 018°03'4 8.2
2017-Jun-24 01:30N 69°24' E 018°06'4 8.7
2017-Jun-24 01:00N 69°28' E 018°08'5 9.9
2017-Jun-24 00:30N 69°31' E 018°21'5 9.9
2017-Jun-24 00:00N 69°32' E 018°34'5 9.2
2017-Jun-23 23:30N 69°34' E 018°46'5 9.3
2017-Jun-23 23:00N 69°37' E 018°55'2 4.9
2017-Jun-23 22:30N 69°40' E 018°58'0 0.0
2017-Jun-23 22:00N 69°40' E 018°58'0 0.0
2017-Jun-23 21:29N 69°40' E 018°58'0 0.0
2017-Jun-23 21:00N 69°40' E 018°58'0 0.0
2017-Jun-23 20:29N 69°40' E 018°58'0 0.0
2017-Jun-23 20:00N 69°40' E 018°58'0 0.0
2017-Jun-23 19:30N 69°40' E 018°58'0 0.0
2017-Jun-23 19:00N 69°40' E 018°58'0 0.0
2017-Jun-23 18:30N 69°40' E 018°58'0 0.0
2017-Jun-23 18:00N 69°40' E 018°58'0 0.0
2017-Jun-23 17:30N 69°40' E 018°58'0 0.0
2017-Jun-23 17:00N 69°40' E 018°58'0 0.0
2017-Jun-23 16:30N 69°40' E 018°58'0 0.2
2017-Jun-23 16:00N 69°40' E 018°58'4 7.8
2017-Jun-23 15:30N 69°43' E 019°04'4 8.5
2017-Jun-23 15:00N 69°46' E 019°12'9 9.0
2017-Jun-23 14:00N 69°49' E 019°37'3 6.7
2017-Jun-23 13:30N 69°47' E 019°45'4 8.5
2017-Jun-23 13:00N 69°43' E 019°44'4 8.0
2017-Jun-23 12:30N 69°39' E 019°45'3 5.0
2017-Jun-23 12:00N 69°37' E 019°44'0 0.0
2017-Jun-23 11:30N 69°37' E 019°44'0 0.0
2017-Jun-23 11:00N 69°37' E 019°44'0 0.0
2017-Jun-23 10:30N 69°37' E 019°44'0 0.0
2017-Jun-23 10:00N 69°37' E 019°44'0 0.0
2017-Jun-23 09:29N 69°37' E 019°44'0 0.0
2017-Jun-23 09:00N 69°37' E 019°44'0 0.5
2017-Jun-23 08:30N 69°37' E 019°45'0 0.8
2017-Jun-23 08:00N 69°37' E 019°45'1 1.6
2017-Jun-23 07:30N 69°38' E 019°45'2 3.5
2017-Jun-23 07:00N 69°40' E 019°45'4 7.7
2017-Jun-23 06:30N 69°44' E 019°45'5 9.1
2017-Jun-23 06:00N 69°48' E 019°45'4 7.3
2017-Jun-23 05:30N 69°49' E 019°34'4 8.8
2017-Jun-23 05:00N 69°48' E 019°22'4 8.5
2017-Jun-23 04:30N 69°46' E 019°11'4 8.9
2017-Jun-23 04:00N 69°42' E 019°03'3 6.6
2017-Jun-23 03:30N 69°40' E 018°58'0 0.0
2017-Jun-23 03:00N 69°40' E 018°58'0 0.0
2017-Jun-23 02:30N 69°40' E 018°58'0 0.0
2017-Jun-23 02:00N 69°40' E 018°58'0 0.0
2017-Jun-23 01:30N 69°40' E 018°58'0 0.0
2017-Jun-23 00:59N 69°40' E 018°58'0 0.0
2017-Jun-23 00:30N 69°40' E 018°58'0 0.0
2017-Jun-23 00:00N 69°40' E 018°58'0 0.0
2017-Jun-22 23:29N 69°40' E 018°58'0 0.0
2017-Jun-22 23:00N 69°40' E 018°58'0 0.0
2017-Jun-22 22:30N 69°40' E 018°58'0 0.0
2017-Jun-22 22:00N 69°40' E 018°58'0 0.0
2017-Jun-22 21:30N 69°40' E 018°58'0 0.0
2017-Jun-22 21:00N 69°40' E 018°58'0 0.0
2017-Jun-22 20:30N 69°40' E 018°58'0 0.0
2017-Jun-22 20:00N 69°40' E 018°58'0 0.0
2017-Jun-22 19:30N 69°40' E 018°58'0 0.0
2017-Jun-22 19:00N 69°40' E 018°58'0 0.0
2017-Jun-22 18:30N 69°40' E 018°58'0 0.0
2017-Jun-22 18:00N 69°40' E 018°58'0 0.0
2017-Jun-22 17:30N 69°40' E 018°58'0 0.0
2017-Jun-22 17:00N 69°40' E 018°58'0 0.0
2017-Jun-22 16:30N 69°40' E 018°58'0 0.0
2017-Jun-22 16:00N 69°40' E 018°58'0 0.0
2017-Jun-22 15:30N 69°40' E 018°58'0 0.0
2017-Jun-22 15:00N 69°40' E 018°58'0 0.0
2017-Jun-22 14:30N 69°40' E 018°58'7 7.0
2017-Jun-22 13:30N 69°45' E 019°09'5 9.1
2017-Jun-22 13:00N 69°47' E 019°20'5 9.1
2017-Jun-22 12:30N 69°49' E 019°33'4 7.9
2017-Jun-22 12:00N 69°48' E 019°45'4 7.9
2017-Jun-22 11:30N 69°44' E 019°45'4 7.8
2017-Jun-22 11:00N 69°41' E 019°45'4 7.5
2017-Jun-22 10:30N 69°37' E 019°44'0 0.5
2017-Jun-22 10:00N 69°37' E 019°44'0 0.0
2017-Jun-22 09:30N 69°37' E 019°44'0 0.0
2017-Jun-22 09:00N 69°37' E 019°44'0 0.0
2017-Jun-22 08:30N 69°37' E 019°44'0 0.0
2017-Jun-22 08:00N 69°37' E 019°44'0 0.0
2017-Jun-22 07:30N 69°37' E 019°44'0 0.0
2017-Jun-22 07:00N 69°37' E 019°44'0 0.0
2017-Jun-22 06:30N 69°37' E 019°44'0 0.0
2017-Jun-22 06:00N 69°37' E 019°44'1 2.5
2017-Jun-22 05:30N 69°38' E 019°45'5 9.9
2017-Jun-22 05:00N 69°43' E 019°46'5 9.8
2017-Jun-22 04:30N 69°47' E 019°51'5 9.6
2017-Jun-22 04:00N 69°51' E 019°58'5 9.7
2017-Jun-22 03:30N 69°56' E 020°05'5 9.7
2017-Jun-22 03:00N 69°59' E 020°15'4 8.4
2017-Jun-22 02:30N 69°56' E 020°23'4 8.7
2017-Jun-22 02:00N 69°51' E 020°25'4 8.1
2017-Jun-22 01:30N 69°47' E 020°25'4 7.8
2017-Jun-22 01:00N 69°43' E 020°25'4 7.8
2017-Jun-22 00:30N 69°39' E 020°24'4 7.5
2017-Jun-21 23:59N 69°36' E 020°22'20 0.8
2017-Jun-21 00:16N 69°52' E 019°49'19 5.5
2017-Jun-20 20:47N 69°42' E 019°01'0 0.0
2017-Jun-20 13:27N 69°42' E 019°01'0 0.0
2017-Jun-20 12:38N 69°42' E 019°01'0 0.0
2017-Jun-20 08:44N 69°42' E 019°01'16 3.6
2017-Jun-20 04:13N 69°49' E 019°43'2 8.1
2017-Jun-20 03:59N 69°47' E 019°45'6 8.4
2017-Jun-20 03:18N 69°42' E 019°45'3 8.6
2017-Jun-20 02:54N 69°38' E 019°47'7 1.8
2017-Jun-19 22:44N 69°46' E 019°45'2 9.4
2017-Jun-19 22:29N 69°48' E 019°45'33 3.5
2017-Jun-19 12:51N 69°31' E 018°23'3 8.8
2017-Jun-19 12:30N 69°30' E 018°14'4 8.4
2017-Jun-19 11:59N 69°26' E 018°07'5 9.3
2017-Jun-19 11:30N 69°22' E 018°06'4 9.0
2017-Jun-19 11:00N 69°18' E 017°58'4 8.8
2017-Jun-19 10:30N 69°14' E 017°58'3 7.0
2017-Jun-19 10:00N 69°10' E 017°58'4 8.9
2017-Jun-19 09:30N 69°09' E 017°47'5 9.1
2017-Jun-19 09:00N 69°07' E 017°35'5 9.2
2017-Jun-19 08:30N 69°05' E 017°24'5 9.2
2017-Jun-19 08:00N 69°01' E 017°16'5 9.2
2017-Jun-19 07:30N 68°58' E 017°07'5 9.2
2017-Jun-19 07:00N 68°55' E 016°57'4 8.9
2017-Jun-19 06:30N 68°52' E 016°48'4 8.8
2017-Jun-19 06:00N 68°49' E 016°38'2 4.9
2017-Jun-19 05:30N 68°48' E 016°33'0 0.0
2017-Jun-19 05:00N 68°48' E 016°33'0 0.0
2017-Jun-19 04:29N 68°48' E 016°33'0 1.0
2017-Jun-19 04:00N 68°48' E 016°34'3 5.6
2017-Jun-19 03:30N 68°51' E 016°34'4 8.1
2017-Jun-19 03:00N 68°53' E 016°25'4 8.2
2017-Jun-19 02:30N 68°56' E 016°16'4 7.6
2017-Jun-19 02:00N 68°57' E 016°07'4 7.6
2017-Jun-19 01:30N 68°59' E 015°57'4 7.5
2017-Jun-19 01:00N 68°59' E 015°46'4 7.1
2017-Jun-19 00:30N 68°57' E 015°37'4 7.6
2017-Jun-18 23:59N 68°54' E 015°33'4 7.6
2017-Jun-18 23:30N 68°51' E 015°29'4 7.6
2017-Jun-18 23:00N 68°47' E 015°26'4 7.8
2017-Jun-18 22:30N 68°43' E 015°26'4 7.5
2017-Jun-18 22:00N 68°39' E 015°24'4 7.2
2017-Jun-18 21:30N 68°36' E 015°20'0 0.6
2017-Jun-18 20:59N 68°36' E 015°20'0 0.0
2017-Jun-18 20:30N 68°36' E 015°20'0 0.0
2017-Jun-18 20:00N 68°36' E 015°20'1 2.3
2017-Jun-18 19:29N 68°35' E 015°16'4 8.6
2017-Jun-18 19:00N 68°32' E 015°09'4 8.5
2017-Jun-18 18:30N 68°28' E 015°12'510.2
2017-Jun-18 18:00N 68°24' E 015°06'4 8.9
2017-Jun-18 17:30N 68°20' E 014°60'5 9.1
2017-Jun-18 17:00N 68°15' E 014°57'5 9.3
2017-Jun-18 16:30N 68°11' E 014°54'5 9.2
2017-Jun-18 16:00N 68°06' E 014°51'5 9.4
2017-Jun-18 15:30N 68°02' E 014°49'5 9.4
2017-Jun-18 15:00N 67°57' E 014°46'9 8.8
2017-Jun-18 14:00N 67°49' E 014°35'5 9.2
2017-Jun-18 13:30N 67°45' E 014°31'5 9.3
2017-Jun-18 13:00N 67°40' E 014°32'4 7.4
2017-Jun-18 12:30N 67°37' E 014°39'4 8.3
2017-Jun-18 12:00N 67°37' E 014°50'4 8.2
2017-Jun-18 11:30N 67°36' E 015°01'4 8.5
2017-Jun-18 11:00N 67°34' E 015°10'5 9.5
2017-Jun-18 10:28N 67°31' E 015°21'3 0.3
2017-Jun-17 21:56N 67°33' E 015°14'3 7.5
2017-Jun-17 21:30N 67°35' E 015°08'4 7.3
2017-Jun-17 20:59N 67°36' E 014°59'4 7.4
2017-Jun-17 20:30N 67°37' E 014°49'4 7.7
2017-Jun-17 20:00N 67°37' E 014°39'3 6.6
2017-Jun-17 19:30N 67°39' E 014°33'4 7.6
2017-Jun-17 19:00N 67°43' E 014°31'4 7.6
2017-Jun-17 18:29N 67°47' E 014°32'4 7.8
2017-Jun-17 18:00N 67°51' E 014°29'4 7.8
2017-Jun-17 17:30N 67°54' E 014°25'4 7.6
2017-Jun-17 17:00N 67°58' E 014°22'4 7.7
2017-Jun-17 16:30N 68°02' E 014°18'4 7.8
2017-Jun-17 16:00N 68°05' E 014°15'4 7.7
2017-Jun-17 15:30N 68°09' E 014°11'4 7.9
2017-Jun-17 15:00N 68°13' E 014°10'8 8.0
2017-Jun-17 14:00N 68°20' E 014°17'4 8.2
2017-Jun-17 13:30N 68°25' E 014°16'4 8.2
2017-Jun-17 13:00N 68°29' E 014°15'4 7.8
2017-Jun-17 12:30N 68°32' E 014°13'4 7.5
2017-Jun-17 12:00N 68°36' E 014°09'3 7.2
2017-Jun-17 11:30N 68°39' E 014°11'4 7.2
2017-Jun-17 11:00N 68°43' E 014°14'4 7.8
2017-Jun-17 10:30N 68°46' E 014°21'4 7.6
2017-Jun-17 10:00N 68°49' E 014°28'4 7.3
2017-Jun-17 09:30N 68°50' E 014°37'4 7.7
2017-Jun-17 08:59N 68°52' E 014°47'4 8.3
2017-Jun-17 08:30N 68°52' E 014°59'3 6.0
2017-Jun-17 07:59N 68°55' E 015°03'0 0.0
2017-Jun-17 07:30N 68°55' E 015°03'0 0.0
2017-Jun-17 07:00N 68°55' E 015°03'0 0.0
2017-Jun-17 06:30N 68°55' E 015°03'0 0.0
2017-Jun-17 06:00N 68°55' E 015°03'0 0.0
2017-Jun-17 05:30N 68°55' E 015°03'0 0.0
2017-Jun-17 05:00N 68°55' E 015°03'0 0.0
2017-Jun-17 04:30N 68°55' E 015°03'0 0.0
2017-Jun-17 04:00N 68°55' E 015°03'0 0.0
2017-Jun-17 03:30N 68°55' E 015°03'0 0.0
2017-Jun-17 02:59N 68°55' E 015°03'0 0.0
2017-Jun-17 02:29N 68°55' E 015°03'0 0.0
2017-Jun-17 02:00N 68°55' E 015°03'0 0.8
2017-Jun-17 01:30N 68°55' E 015°02'4 7.6
2017-Jun-17 01:00N 68°52' E 014°55'4 7.8
2017-Jun-17 00:30N 68°51' E 014°44'4 7.6
2017-Jun-17 00:00N 68°50' E 014°34'4 7.3
2017-Jun-16 23:30N 68°48' E 014°26'4 7.3
2017-Jun-16 23:00N 68°45' E 014°22'4 7.5
2017-Jun-16 22:29N 68°41' E 014°21'4 8.4
2017-Jun-16 22:00N 68°37' E 014°22'4 7.0
2017-Jun-16 21:30N 68°35' E 014°31'5 9.0
2017-Jun-16 21:00N 68°35' E 014°43'4 8.6
2017-Jun-16 20:30N 68°34' E 014°55'0 0.2
2017-Jun-16 20:00N 68°34' E 014°55'0 0.0
2017-Jun-16 19:30N 68°34' E 014°55'0 0.0
2017-Jun-16 19:00N 68°34' E 014°55'0 0.0
2017-Jun-16 18:30N 68°34' E 014°55'0 0.0
2017-Jun-16 17:59N 68°34' E 014°55'0 0.0
2017-Jun-16 17:29N 68°34' E 014°55'3 7.2
2017-Jun-16 17:00N 68°35' E 015°04'5 9.1
2017-Jun-16 16:30N 68°37' E 015°15'4 8.8
2017-Jun-16 16:00N 68°40' E 015°25'5 8.9
2017-Jun-16 15:29N 68°44' E 015°25'4 9.0
2017-Jun-16 15:00N 68°49' E 015°26'9 9.0
2017-Jun-16 14:00N 68°57' E 015°36'1 2.9
2017-Jun-16 13:30N 68°58' E 015°38'0 0.0
2017-Jun-16 13:00N 68°58' E 015°38'0 0.0
2017-Jun-16 12:30N 68°58' E 015°38'0 0.0
2017-Jun-16 12:00N 68°58' E 015°38'0 0.0
2017-Jun-16 11:30N 68°58' E 015°38'0 0.0
2017-Jun-16 11:00N 68°58' E 015°38'0 0.0
2017-Jun-16 10:30N 68°58' E 015°38'0 0.0
2017-Jun-16 10:00N 68°58' E 015°38'0 0.0
2017-Jun-16 09:30N 68°58' E 015°38'1 1.3
2017-Jun-16 09:00N 68°58' E 015°37'1 1.5
2017-Jun-16 08:30N 68°57' E 015°36'3 6.0
2017-Jun-16 08:00N 68°54' E 015°34'3 6.3
2017-Jun-16 07:30N 68°51' E 015°30'3 6.6
2017-Jun-16 07:00N 68°48' E 015°26'4 7.5
2017-Jun-16 06:30N 68°45' E 015°25'4 7.9
2017-Jun-16 06:00N 68°40' E 015°26'3 7.0
2017-Jun-16 05:30N 68°37' E 015°22'2 3.9
2017-Jun-16 05:00N 68°36' E 015°20'0 0.0
2017-Jun-16 04:30N 68°36' E 015°20'0 0.0
2017-Jun-16 04:00N 68°36' E 015°20'0 0.0
2017-Jun-16 03:30N 68°36' E 015°20'0 0.0
2017-Jun-16 03:00N 68°36' E 015°20'0 0.0
2017-Jun-16 02:30N 68°36' E 015°20'0 0.0
2017-Jun-16 02:00N 68°36' E 015°20'0 0.0
2017-Jun-16 01:30N 68°36' E 015°20'0 0.9
2017-Jun-16 01:00N 68°36' E 015°19'0 0.3
2017-Jun-16 00:30N 68°36' E 015°18'3 6.2
2017-Jun-16 00:00N 68°34' E 015°11'4 8.1
2017-Jun-15 23:30N 68°32' E 015°03'4 7.9
2017-Jun-15 23:00N 68°29' E 014°54'4 8.2
2017-Jun-15 22:29N 68°28' E 014°43'4 8.2
2017-Jun-15 22:00N 68°27' E 014°32'4 8.4
2017-Jun-15 21:30N 68°24' E 014°23'4 8.2
2017-Jun-15 21:00N 68°21' E 014°17'4 7.9
2017-Jun-15 20:30N 68°17' E 014°17'4 7.7
2017-Jun-15 20:00N 68°14' E 014°11'4 8.0
2017-Jun-15 19:30N 68°10' E 014°08'4 8.3
2017-Jun-15 19:00N 68°07' E 013°60'4 8.4
2017-Jun-15 18:30N 68°05' E 013°50'4 8.4
2017-Jun-15 17:59N 68°04' E 013°39'3 6.7
2017-Jun-15 17:30N 68°07' E 013°36'1 2.2
2017-Jun-15 17:00N 68°07' E 013°33'0 0.0
2017-Jun-15 16:30N 68°07' E 013°33'0 0.0
2017-Jun-15 16:00N 68°07' E 013°33'0 0.0
2017-Jun-15 15:30N 68°07' E 013°33'0 0.0
2017-Jun-15 15:00N 68°07' E 013°33'0 0.0
2017-Jun-15 14:00N 68°07' E 013°33'0 0.0
2017-Jun-15 13:30N 68°07' E 013°33'0 0.0
2017-Jun-15 13:00N 68°07' E 013°33'0 0.0
2017-Jun-15 12:30N 68°07' E 013°33'0 0.0
2017-Jun-15 12:00N 68°07' E 013°33'0 0.0
2017-Jun-15 11:30N 68°07' E 013°33'0 0.0
2017-Jun-15 11:00N 68°07' E 013°33'0 0.0
2017-Jun-15 10:30N 68°07' E 013°33'0 0.0
2017-Jun-15 10:00N 68°07' E 013°33'0 0.0
2017-Jun-15 09:30N 68°07' E 013°33'0 0.0
2017-Jun-15 09:00N 68°07' E 013°33'0 0.0
2017-Jun-15 08:30N 68°07' E 013°33'0 0.0
2017-Jun-15 08:00N 68°07' E 013°33'0 0.0
2017-Jun-15 07:30N 68°07' E 013°33'0 0.1
2017-Jun-15 07:00N 68°07' E 013°33'3 6.1
2017-Jun-15 06:30N 68°04' E 013°36'4 7.2
2017-Jun-15 06:00N 68°04' E 013°46'4 7.8
2017-Jun-15 05:30N 68°06' E 013°55'4 7.9
2017-Jun-15 05:00N 68°09' E 014°04'4 7.7
2017-Jun-15 04:30N 68°12' E 014°10'4 7.3
2017-Jun-15 04:00N 68°15' E 014°13'3 5.9
2017-Jun-15 03:29N 68°18' E 014°17'3 7.0
2017-Jun-15 03:00N 68°21' E 014°17'4 7.7
2017-Jun-15 02:30N 68°24' E 014°23'4 8.2
2017-Jun-15 02:00N 68°27' E 014°32'4 8.4
2017-Jun-15 01:30N 68°28' E 014°43'4 8.4
2017-Jun-15 01:00N 68°29' E 014°54'4 8.6
2017-Jun-15 00:30N 68°32' E 015°04'4 8.4
2017-Jun-15 00:00N 68°35' E 015°12'4 8.3
2017-Jun-14 23:30N 68°37' E 015°21'4 8.7
2017-Jun-14 22:59N 68°38' E 015°33'0 0.9
2017-Jun-14 22:30N 68°38' E 015°34'0 0.0
2017-Jun-14 22:00N 68°38' E 015°34'0 0.0
2017-Jun-14 21:30N 68°38' E 015°34'0 0.0
2017-Jun-14 21:00N 68°38' E 015°34'0 0.0
2017-Jun-14 20:30N 68°38' E 015°34'0 0.0
2017-Jun-14 20:00N 68°38' E 015°34'0 0.0
2017-Jun-14 19:30N 68°38' E 015°34'0 0.0
2017-Jun-14 19:00N 68°38' E 015°34'0 0.0
2017-Jun-14 18:30N 68°38' E 015°34'0 0.0
2017-Jun-14 18:00N 68°38' E 015°34'0 0.0
2017-Jun-14 17:30N 68°38' E 015°34'0 0.0
2017-Jun-14 17:00N 68°38' E 015°34'0 0.0
2017-Jun-14 16:30N 68°38' E 015°34'0 0.0
2017-Jun-14 16:00N 68°38' E 015°34'0 0.0
2017-Jun-14 15:30N 68°38' E 015°34'0 0.0
2017-Jun-14 15:00N 68°38' E 015°34'0 0.0
2017-Jun-14 14:00N 68°38' E 015°34'0 0.0
2017-Jun-14 13:30N 68°38' E 015°34'0 0.0
2017-Jun-14 13:00N 68°38' E 015°34'0 0.0
2017-Jun-14 12:29N 68°38' E 015°34'0 0.0
2017-Jun-14 11:59N 68°38' E 015°34'0 0.0
2017-Jun-14 11:30N 68°38' E 015°34'0 0.0
2017-Jun-14 11:00N 68°38' E 015°34'0 0.0
2017-Jun-14 10:29N 68°38' E 015°34'0 0.0
2017-Jun-14 10:00N 68°38' E 015°34'  
Track history (hours):
 
Tides and Currents Weather Stations Pressure Air Temp Water Temp Dewpoint Dewpoint Depression Visibility Wind Speed Wind Dir Waves Ship Positions

Trine Charlotte

Last reported at 2017-Jun-24 10:00 UTC. Time now 2017-Jun-24 10:11 UTC.
Position N 68°48' E 015°26'.

Length 66 m; draft 4.4 m.

Type: Cargo ship. MMSI: 257233000.

Date/timePositionNaut miles runAvg speedWind from/ knotsBaromVisibWave heightAir tempDewpointWater temp
2017-Jun-24 10:00N 68°48' E 015°26'5 9.3
2017-Jun-24 09:30N 68°52' E 015°31'5 9.3
2017-Jun-24 09:00N 68°56' E 015°36'4 7.9
2017-Jun-24 08:30N 68°59' E 015°45'5 9.4
2017-Jun-24 08:00N 68°59' E 015°58'5 9.4
2017-Jun-24 07:30N 68°60' E 016°11'4 8.8
2017-Jun-24 07:00N 68°59' E 016°23'4 8.8
2017-Jun-24 06:30N 68°59' E 016°35'5 9.6
2017-Jun-24 06:00N 68°59' E 016°49'510.3
2017-Jun-24 05:30N 68°60' E 017°03'5 9.7
2017-Jun-24 05:00N 69°01' E 017°16'5 9.9
2017-Jun-24 04:30N 69°05' E 017°24'510.2
2017-Jun-24 04:00N 69°07' E 017°37'510.1
2017-Jun-24 03:30N 69°09' E 017°50'5 9.6
2017-Jun-24 03:00N 69°12' E 018°01'4 8.7
2017-Jun-24 02:30N 69°16' E 017°58'4 8.6
2017-Jun-24 02:00N 69°20' E 018°03'4 8.2
2017-Jun-24 01:30N 69°24' E 018°06'4 8.7
2017-Jun-24 01:00N 69°28' E 018°08'5 9.9
2017-Jun-24 00:30N 69°31' E 018°21'5 9.9
2017-Jun-24 00:00N 69°32' E 018°34'5 9.2
2017-Jun-23 23:30N 69°34' E 018°46'5 9.3
2017-Jun-23 23:00N 69°37' E 018°55'2 4.9
2017-Jun-23 22:30N 69°40' E 018°58'0 0.0
2017-Jun-23 22:00N 69°40' E 018°58'0 0.0
2017-Jun-23 21:29N 69°40' E 018°58'0 0.0
2017-Jun-23 21:00N 69°40' E 018°58'0 0.0
2017-Jun-23 20:29N 69°40' E 018°58'0 0.0
2017-Jun-23 20:00N 69°40' E 018°58'0 0.0
2017-Jun-23 19:30N 69°40' E 018°58'0 0.0
2017-Jun-23 19:00N 69°40' E 018°58'0 0.0
2017-Jun-23 18:30N 69°40' E 018°58'0 0.0
2017-Jun-23 18:00N 69°40' E 018°58'0 0.0
2017-Jun-23 17:30N 69°40' E 018°58'0 0.0
2017-Jun-23 17:00N 69°40' E 018°58'0 0.0
2017-Jun-23 16:30N 69°40' E 018°58'0 0.2
2017-Jun-23 16:00N 69°40' E 018°58'4 7.8
2017-Jun-23 15:30N 69°43' E 019°04'4 8.5
2017-Jun-23 15:00N 69°46' E 019°12'9 9.0
2017-Jun-23 14:00N 69°49' E 019°37'3 6.7
2017-Jun-23 13:30N 69°47' E 019°45'4 8.5
2017-Jun-23 13:00N 69°43' E 019°44'4 8.0
2017-Jun-23 12:30N 69°39' E 019°45'3 5.0
2017-Jun-23 12:00N 69°37' E 019°44'0 0.0
2017-Jun-23 11:30N 69°37' E 019°44'0 0.0
2017-Jun-23 11:00N 69°37' E 019°44'0 0.0
2017-Jun-23 10:30N 69°37' E 019°44'0 0.0
2017-Jun-23 10:00N 69°37' E 019°44'0 0.0
2017-Jun-23 09:29N 69°37' E 019°44'0 0.0
2017-Jun-23 09:00N 69°37' E 019°44'0 0.5
2017-Jun-23 08:30N 69°37' E 019°45'0 0.8
2017-Jun-23 08:00N 69°37' E 019°45'1 1.6
2017-Jun-23 07:30N 69°38' E 019°45'2 3.5
2017-Jun-23 07:00N 69°40' E 019°45'4 7.7
2017-Jun-23 06:30N 69°44' E 019°45'5 9.1
2017-Jun-23 06:00N 69°48' E 019°45'4 7.3
2017-Jun-23 05:30N 69°49' E 019°34'4 8.8
2017-Jun-23 05:00N 69°48' E 019°22'4 8.5
2017-Jun-23 04:30N 69°46' E 019°11'4 8.9
2017-Jun-23 04:00N 69°42' E 019°03'3 6.6
2017-Jun-23 03:30N 69°40' E 018°58'0 0.0
2017-Jun-23 03:00N 69°40' E 018°58'0 0.0
2017-Jun-23 02:30N 69°40' E 018°58'0 0.0
2017-Jun-23 02:00N 69°40' E 018°58'0 0.0
2017-Jun-23 01:30N 69°40' E 018°58'0 0.0
2017-Jun-23 00:59N 69°40' E 018°58'0 0.0
2017-Jun-23 00:30N 69°40' E 018°58'0 0.0
2017-Jun-23 00:00N 69°40' E 018°58'0 0.0
2017-Jun-22 23:29N 69°40' E 018°58'0 0.0
2017-Jun-22 23:00N 69°40' E 018°58'0 0.0
2017-Jun-22 22:30N 69°40' E 018°58'0 0.0
2017-Jun-22 22:00N 69°40' E 018°58'0 0.0
2017-Jun-22 21:30N 69°40' E 018°58'0 0.0
2017-Jun-22 21:00N 69°40' E 018°58'0 0.0
2017-Jun-22 20:30N 69°40' E 018°58'0 0.0
2017-Jun-22 20:00N 69°40' E 018°58'0 0.0
2017-Jun-22 19:30N 69°40' E 018°58'0 0.0
2017-Jun-22 19:00N 69°40' E 018°58'0 0.0
2017-Jun-22 18:30N 69°40' E 018°58'0 0.0
2017-Jun-22 18:00N 69°40' E 018°58'0 0.0
2017-Jun-22 17:30N 69°40' E 018°58'0 0.0
2017-Jun-22 17:00N 69°40' E 018°58'0 0.0
2017-Jun-22 16:30N 69°40' E 018°58'0 0.0
2017-Jun-22 16:00N 69°40' E 018°58'0 0.0
2017-Jun-22 15:30N 69°40' E 018°58'0 0.0
2017-Jun-22 15:00N 69°40' E 018°58'0 0.0
2017-Jun-22 14:30N 69°40' E 018°58'7 7.0
2017-Jun-22 13:30N 69°45' E 019°09'5 9.1
2017-Jun-22 13:00N 69°47' E 019°20'5 9.1
2017-Jun-22 12:30N 69°49' E 019°33'4 7.9
2017-Jun-22 12:00N 69°48' E 019°45'4 7.9
2017-Jun-22 11:30N 69°44' E 019°45'4 7.8
2017-Jun-22 11:00N 69°41' E 019°45'4 7.5
2017-Jun-22 10:30N 69°37' E 019°44'0 0.5
2017-Jun-22 10:00N 69°37' E 019°44'0 0.0
2017-Jun-22 09:30N 69°37' E 019°44'0 0.0
2017-Jun-22 09:00N 69°37' E 019°44'0 0.0
2017-Jun-22 08:30N 69°37' E 019°44'0 0.0
2017-Jun-22 08:00N 69°37' E 019°44'0 0.0
2017-Jun-22 07:30N 69°37' E 019°44'0 0.0
2017-Jun-22 07:00N 69°37' E 019°44'0 0.0
2017-Jun-22 06:30N 69°37' E 019°44'0 0.0
2017-Jun-22 06:00N 69°37' E 019°44'1 2.5
2017-Jun-22 05:30N 69°38' E 019°45'5 9.9
2017-Jun-22 05:00N 69°43' E 019°46'5 9.8
2017-Jun-22 04:30N 69°47' E 019°51'5 9.6
2017-Jun-22 04:00N 69°51' E 019°58'5 9.7
2017-Jun-22 03:30N 69°56' E 020°05'5 9.7
2017-Jun-22 03:00N 69°59' E 020°15'4 8.4
2017-Jun-22 02:30N 69°56' E 020°23'4 8.7
2017-Jun-22 02:00N 69°51' E 020°25'4 8.1
2017-Jun-22 01:30N 69°47' E 020°25'4 7.8
2017-Jun-22 01:00N 69°43' E 020°25'4 7.8
2017-Jun-22 00:30N 69°39' E 020°24'4 7.5
2017-Jun-21 23:59N 69°36' E 020°22'20 0.8
2017-Jun-21 00:16N 69°52' E 019°49'19 5.5
2017-Jun-20 20:47N 69°42' E 019°01'0 0.0
2017-Jun-20 13:27N 69°42' E 019°01'0 0.0
2017-Jun-20 12:38N 69°42' E 019°01'0 0.0
2017-Jun-20 08:44N 69°42' E 019°01'16 3.6
2017-Jun-20 04:13N 69°49' E 019°43'2 8.1
2017-Jun-20 03:59N 69°47' E 019°45'6 8.4
2017-Jun-20 03:18N 69°42' E 019°45'3 8.6
2017-Jun-20 02:54N 69°38' E 019°47'7 1.8
2017-Jun-19 22:44N 69°46' E 019°45'2 9.4
2017-Jun-19 22:29N 69°48' E 019°45'33 3.5
2017-Jun-19 12:51N 69°31' E 018°23'3 8.8
2017-Jun-19 12:30N 69°30' E 018°14'4 8.4
2017-Jun-19 11:59N 69°26' E 018°07'5 9.3
2017-Jun-19 11:30N 69°22' E 018°06'4 9.0
2017-Jun-19 11:00N 69°18' E 017°58'4 8.8
2017-Jun-19 10:30N 69°14' E 017°58'3 7.0
2017-Jun-19 10:00N 69°10' E 017°58'4 8.9
2017-Jun-19 09:30N 69°09' E 017°47'5 9.1
2017-Jun-19 09:00N 69°07' E 017°35'5 9.2
2017-Jun-19 08:30N 69°05' E 017°24'5 9.2
2017-Jun-19 08:00N 69°01' E 017°16'5 9.2
2017-Jun-19 07:30N 68°58' E 017°07'5 9.2
2017-Jun-19 07:00N 68°55' E 016°57'4 8.9
2017-Jun-19 06:30N 68°52' E 016°48'4 8.8
2017-Jun-19 06:00N 68°49' E 016°38'2 4.9
2017-Jun-19 05:30N 68°48' E 016°33'0 0.0
2017-Jun-19 05:00N 68°48' E 016°33'0 0.0
2017-Jun-19 04:29N 68°48' E 016°33'0 1.0
2017-Jun-19 04:00N 68°48' E 016°34'3 5.6
2017-Jun-19 03:30N 68°51' E 016°34'4 8.1
2017-Jun-19 03:00N 68°53' E 016°25'4 8.2
2017-Jun-19 02:30N 68°56' E 016°16'4 7.6
2017-Jun-19 02:00N 68°57' E 016°07'4 7.6
2017-Jun-19 01:30N 68°59' E 015°57'4 7.5
2017-Jun-19 01:00N 68°59' E 015°46'4 7.1
2017-Jun-19 00:30N 68°57' E 015°37'4 7.6
2017-Jun-18 23:59N 68°54' E 015°33'4 7.6
2017-Jun-18 23:30N 68°51' E 015°29'4 7.6
2017-Jun-18 23:00N 68°47' E 015°26'4 7.8
2017-Jun-18 22:30N 68°43' E 015°26'4 7.5
2017-Jun-18 22:00N 68°39' E 015°24'4 7.2
2017-Jun-18 21:30N 68°36' E 015°20'0 0.6
2017-Jun-18 20:59N 68°36' E 015°20'0 0.0
2017-Jun-18 20:30N 68°36' E 015°20'0 0.0
2017-Jun-18 20:00N 68°36' E 015°20'1 2.3
2017-Jun-18 19:29N 68°35' E 015°16'4 8.6
2017-Jun-18 19:00N 68°32' E 015°09'4 8.5
2017-Jun-18 18:30N 68°28' E 015°12'510.2
2017-Jun-18 18:00N 68°24' E 015°06'4 8.9
2017-Jun-18 17:30N 68°20' E 014°60'5 9.1
2017-Jun-18 17:00N 68°15' E 014°57'5 9.3
2017-Jun-18 16:30N 68°11' E 014°54'5 9.2
2017-Jun-18 16:00N 68°06' E 014°51'5 9.4
2017-Jun-18 15:30N 68°02' E 014°49'5 9.4
2017-Jun-18 15:00N 67°57' E 014°46'9 8.8
2017-Jun-18 14:00N 67°49' E 014°35'5 9.2
2017-Jun-18 13:30N 67°45' E 014°31'5 9.3
2017-Jun-18 13:00N 67°40' E 014°32'4 7.4
2017-Jun-18 12:30N 67°37' E 014°39'4 8.3
2017-Jun-18 12:00N 67°37' E 014°50'4 8.2
2017-Jun-18 11:30N 67°36' E 015°01'4 8.5
2017-Jun-18 11:00N 67°34' E 015°10'5 9.5
2017-Jun-18 10:28N 67°31' E 015°21'3 0.3
2017-Jun-17 21:56N 67°33' E 015°14'3 7.5
2017-Jun-17 21:30N 67°35' E 015°08'4 7.3
2017-Jun-17 20:59N 67°36' E 014°59'4 7.4
2017-Jun-17 20:30N 67°37' E 014°49'4 7.7
2017-Jun-17 20:00N 67°37' E 014°39'3 6.6
2017-Jun-17 19:30N 67°39' E 014°33'4 7.6
2017-Jun-17 19:00N 67°43' E 014°31'4 7.6
2017-Jun-17 18:29N 67°47' E 014°32'4 7.8
2017-Jun-17 18:00N 67°51' E 014°29'4 7.8
2017-Jun-17 17:30N 67°54' E 014°25'4 7.6
2017-Jun-17 17:00N 67°58' E 014°22'4 7.7
2017-Jun-17 16:30N 68°02' E 014°18'4 7.8
2017-Jun-17 16:00N 68°05' E 014°15'4 7.7
2017-Jun-17 15:30N 68°09' E 014°11'4 7.9
2017-Jun-17 15:00N 68°13' E 014°10'8 8.0
2017-Jun-17 14:00N 68°20' E 014°17'4 8.2
2017-Jun-17 13:30N 68°25' E 014°16'4 8.2
2017-Jun-17 13:00N 68°29' E 014°15'4 7.8
2017-Jun-17 12:30N 68°32' E 014°13'4 7.5
2017-Jun-17 12:00N 68°36' E 014°09'3 7.2
2017-Jun-17 11:30N 68°39' E 014°11'4 7.2
2017-Jun-17 11:00N 68°43' E 014°14'4 7.8
2017-Jun-17 10:30N 68°46' E 014°21'4 7.6
2017-Jun-17 10:00N 68°49' E 014°28'4 7.3
2017-Jun-17 09:30N 68°50' E 014°37'4 7.7
2017-Jun-17 08:59N 68°52' E 014°47'4 8.3
2017-Jun-17 08:30N 68°52' E 014°59'3 6.0
2017-Jun-17 07:59N 68°55' E 015°03'0 0.0
2017-Jun-17 07:30N 68°55' E 015°03'0 0.0
2017-Jun-17 07:00N 68°55' E 015°03'0 0.0
2017-Jun-17 06:30N 68°55' E 015°03'0 0.0
2017-Jun-17 06:00N 68°55' E 015°03'0 0.0
2017-Jun-17 05:30N 68°55' E 015°03'0 0.0
2017-Jun-17 05:00N 68°55' E 015°03'0 0.0
2017-Jun-17 04:30N 68°55' E 015°03'0 0.0
2017-Jun-17 04:00N 68°55' E 015°03'0 0.0
2017-Jun-17 03:30N 68°55' E 015°03'0 0.0
2017-Jun-17 02:59N 68°55' E 015°03'0 0.0
2017-Jun-17 02:29N 68°55' E 015°03'0 0.0
2017-Jun-17 02:00N 68°55' E 015°03'0 0.8
2017-Jun-17 01:30N 68°55' E 015°02'4 7.6
2017-Jun-17 01:00N 68°52' E 014°55'4 7.8
2017-Jun-17 00:30N 68°51' E 014°44'4 7.6
2017-Jun-17 00:00N 68°50' E 014°34'4 7.3
2017-Jun-16 23:30N 68°48' E 014°26'4 7.3
2017-Jun-16 23:00N 68°45' E 014°22'4 7.5
2017-Jun-16 22:29N 68°41' E 014°21'4 8.4
2017-Jun-16 22:00N 68°37' E 014°22'4 7.0
2017-Jun-16 21:30N 68°35' E 014°31'5 9.0
2017-Jun-16 21:00N 68°35' E 014°43'4 8.6
2017-Jun-16 20:30N 68°34' E 014°55'0 0.2
2017-Jun-16 20:00N 68°34' E 014°55'0 0.0
2017-Jun-16 19:30N 68°34' E 014°55'0 0.0
2017-Jun-16 19:00N 68°34' E 014°55'0 0.0
2017-Jun-16 18:30N 68°34' E 014°55'0 0.0
2017-Jun-16 17:59N 68°34' E 014°55'0 0.0
2017-Jun-16 17:29N 68°34' E 014°55'3 7.2
2017-Jun-16 17:00N 68°35' E 015°04'5 9.1
2017-Jun-16 16:30N 68°37' E 015°15'4 8.8
2017-Jun-16 16:00N 68°40' E 015°25'5 8.9
2017-Jun-16 15:29N 68°44' E 015°25'4 9.0
2017-Jun-16 15:00N 68°49' E 015°26'9 9.0
2017-Jun-16 14:00N 68°57' E 015°36'1 2.9
2017-Jun-16 13:30N 68°58' E 015°38'0 0.0
2017-Jun-16 13:00N 68°58' E 015°38'0 0.0
2017-Jun-16 12:30N 68°58' E 015°38'0 0.0
2017-Jun-16 12:00N 68°58' E 015°38'0 0.0
2017-Jun-16 11:30N 68°58' E 015°38'0 0.0
2017-Jun-16 11:00N 68°58' E 015°38'0 0.0
2017-Jun-16 10:30N 68°58' E 015°38'0 0.0
2017-Jun-16 10:00N 68°58' E 015°38'0 0.0
2017-Jun-16 09:30N 68°58' E 015°38'1 1.3
2017-Jun-16 09:00N 68°58' E 015°37'1 1.5
2017-Jun-16 08:30N 68°57' E 015°36'3 6.0
2017-Jun-16 08:00N 68°54' E 015°34'3 6.3
2017-Jun-16 07:30N 68°51' E 015°30'3 6.6
2017-Jun-16 07:00N 68°48' E 015°26'4 7.5
2017-Jun-16 06:30N 68°45' E 015°25'4 7.9
2017-Jun-16 06:00N 68°40' E 015°26'3 7.0
2017-Jun-16 05:30N 68°37' E 015°22'2 3.9
2017-Jun-16 05:00N 68°36' E 015°20'0 0.0
2017-Jun-16 04:30N 68°36' E 015°20'0 0.0
2017-Jun-16 04:00N 68°36' E 015°20'0 0.0
2017-Jun-16 03:30N 68°36' E 015°20'0 0.0
2017-Jun-16 03:00N 68°36' E 015°20'0 0.0
2017-Jun-16 02:30N 68°36' E 015°20'0 0.0
2017-Jun-16 02:00N 68°36' E 015°20'0 0.0
2017-Jun-16 01:30N 68°36' E 015°20'0 0.9
2017-Jun-16 01:00N 68°36' E 015°19'0 0.3
2017-Jun-16 00:30N 68°36' E 015°18'3 6.2
2017-Jun-16 00:00N 68°34' E 015°11'4 8.1
2017-Jun-15 23:30N 68°32' E 015°03'4 7.9
2017-Jun-15 23:00N 68°29' E 014°54'4 8.2
2017-Jun-15 22:29N 68°28' E 014°43'4 8.2
2017-Jun-15 22:00N 68°27' E 014°32'4 8.4
2017-Jun-15 21:30N 68°24' E 014°23'4 8.2
2017-Jun-15 21:00N 68°21' E 014°17'4 7.9
2017-Jun-15 20:30N 68°17' E 014°17'4 7.7
2017-Jun-15 20:00N 68°14' E 014°11'4 8.0
2017-Jun-15 19:30N 68°10' E 014°08'4 8.3
2017-Jun-15 19:00N 68°07' E 013°60'4 8.4
2017-Jun-15 18:30N 68°05' E 013°50'4 8.4
2017-Jun-15 17:59N 68°04' E 013°39'3 6.7
2017-Jun-15 17:30N 68°07' E 013°36'1 2.2
2017-Jun-15 17:00N 68°07' E 013°33'0 0.0
2017-Jun-15 16:30N 68°07' E 013°33'0 0.0
2017-Jun-15 16:00N 68°07' E 013°33'0 0.0
2017-Jun-15 15:30N 68°07' E 013°33'0 0.0
2017-Jun-15 15:00N 68°07' E 013°33'0 0.0
2017-Jun-15 14:00N 68°07' E 013°33'0 0.0
2017-Jun-15 13:30N 68°07' E 013°33'0 0.0
2017-Jun-15 13:00N 68°07' E 013°33'0 0.0
2017-Jun-15 12:30N 68°07' E 013°33'0 0.0
2017-Jun-15 12:00N 68°07' E 013°33'0 0.0
2017-Jun-15 11:30N 68°07' E 013°33'0 0.0
2017-Jun-15 11:00N 68°07' E 013°33'0 0.0
2017-Jun-15 10:30N 68°07' E 013°33'0 0.0
2017-Jun-15 10:00N 68°07' E 013°33'0 0.0
2017-Jun-15 09:30N 68°07' E 013°33'0 0.0
2017-Jun-15 09:00N 68°07' E 013°33'0 0.0
2017-Jun-15 08:30N 68°07' E 013°33'0 0.0
2017-Jun-15 08:00N 68°07' E 013°33'0 0.0
2017-Jun-15 07:30N 68°07' E 013°33'0 0.1
2017-Jun-15 07:00N 68°07' E 013°33'3 6.1
2017-Jun-15 06:30N 68°04' E 013°36'4 7.2
2017-Jun-15 06:00N 68°04' E 013°46'4 7.8
2017-Jun-15 05:30N 68°06' E 013°55'4 7.9
2017-Jun-15 05:00N 68°09' E 014°04'4 7.7
2017-Jun-15 04:30N 68°12' E 014°10'4 7.3
2017-Jun-15 04:00N 68°15' E 014°13'3 5.9
2017-Jun-15 03:29N 68°18' E 014°17'3 7.0
2017-Jun-15 03:00N 68°21' E 014°17'4 7.7
2017-Jun-15 02:30N 68°24' E 014°23'4 8.2
2017-Jun-15 02:00N 68°27' E 014°32'4 8.4
2017-Jun-15 01:30N 68°28' E 014°43'4 8.4
2017-Jun-15 01:00N 68°29' E 014°54'4 8.6
2017-Jun-15 00:30N 68°32' E 015°04'4 8.4
2017-Jun-15 00:00N 68°35' E 015°12'4 8.3
2017-Jun-14 23:30N 68°37' E 015°21'4 8.7
2017-Jun-14 22:59N 68°38' E 015°33'0 0.9
2017-Jun-14 22:30N 68°38' E 015°34'0 0.0
2017-Jun-14 22:00N 68°38' E 015°34'0 0.0
2017-Jun-14 21:30N 68°38' E 015°34'0 0.0
2017-Jun-14 21:00N 68°38' E 015°34'0 0.0
2017-Jun-14 20:30N 68°38' E 015°34'0 0.0
2017-Jun-14 20:00N 68°38' E 015°34'0 0.0
2017-Jun-14 19:30N 68°38' E 015°34'0 0.0
2017-Jun-14 19:00N 68°38' E 015°34'0 0.0
2017-Jun-14 18:30N 68°38' E 015°34'0 0.0
2017-Jun-14 18:00N 68°38' E 015°34'0 0.0
2017-Jun-14 17:30N 68°38' E 015°34'0 0.0
2017-Jun-14 17:00N 68°38' E 015°34'0 0.0
2017-Jun-14 16:30N 68°38' E 015°34'0 0.0
2017-Jun-14 16:00N 68°38' E 015°34'0 0.0
2017-Jun-14 15:30N 68°38' E 015°34'0 0.0
2017-Jun-14 15:00N 68°38' E 015°34'0 0.0
2017-Jun-14 14:00N 68°38' E 015°34'0 0.0
2017-Jun-14 13:30N 68°38' E 015°34'0 0.0
2017-Jun-14 13:00N 68°38' E 015°34'0 0.0
2017-Jun-14 12:29N 68°38' E 015°34'0 0.0
2017-Jun-14 11:59N 68°38' E 015°34'0 0.0
2017-Jun-14 11:30N 68°38' E 015°34'0 0.0
2017-Jun-14 11:00N 68°38' E 015°34'0 0.0
2017-Jun-14 10:29N 68°38' E 015°34'0 0.0
2017-Jun-14 10:00N 68°38' E 015°34'  

Dump ship's entire track history